Terminal Aerodrome Forecast
Issued by NWS

Home | Current Version | Previous Version | Text Only | Print | Product List | Glossary On
Versions: 1 2 3 4 5 6 7 8 9 10 11 12 13 14 15 16 17 18 19 20
000
FTUS43 KJKL 290500
TAFSME
TAF
KSME 290539Z 2906/3006 13003KT P6SM SCT250
     FM290800 18009KT P6SM SCT050 BKN200 WS020/20040KT
     FM291300 20010KT P6SM VCSH BKN050
     FM291500 23010G20KT 5SM -SHRA BKN035 BKN050
     FM292200 26010G17KT P6SM OVC010=

USA.gov is the U.S. government's official web portal to all federal, state and local government web resources and services.